sensor_id;sensor_type;location;lat;lon;timestamp;temperature;humidity
46117;DHT22;32591;48.102;11.772;2022-07-29T00:00:48;20.40;76.10
46117;DHT22;32591;48.102;11.772;2022-07-29T00:03:14;20.40;76.10
46117;DHT22;32591;48.102;11.772;2022-07-29T00:05:42;20.40;76.10
46117;DHT22;32591;48.102;11.772;2022-07-29T00:08:09;20.50;76.30
46117;DHT22;32591;48.102;11.772;2022-07-29T00:10:36;20.50;75.70
46117;DHT22;32591;48.102;11.772;2022-07-29T00:13:04;20.50;76.10
46117;DHT22;32591;48.102;11.772;2022-07-29T00:15:31;20.50;75.90
46117;DHT22;32591;48.102;11.772;2022-07-29T00:17:58;20.50;76.10
46117;DHT22;32591;48.102;11.772;2022-07-29T00:20:25;20.60;76.30
46117;DHT22;32591;48.102;11.772;2022-07-29T00:22:52;20.60;76.10
46117;DHT22;32591;48.102;11.772;2022-07-29T00:25:19;20.60;76.50
46117;DHT22;32591;48.102;11.772;2022-07-29T00:27:46;20.50;76.10
46117;DHT22;32591;48.102;11.772;2022-07-29T00:30:14;20.40;76.80
46117;DHT22;32591;48.102;11.772;2022-07-29T00:32:41;20.30;77.60
46117;DHT22;32591;48.102;11.772;2022-07-29T00:35:08;20.30;77.70
46117;DHT22;32591;48.102;11.772;2022-07-29T00:37:54;20.30;77.30
46117;DHT22;32591;48.102;11.772;2022-07-29T00:40:21;20.30;77.50
46117;DHT22;32591;48.102;11.772;2022-07-29T00:42:50;20.20;77.80
46117;DHT22;32591;48.102;11.772;2022-07-29T00:45:19;20.20;77.90
46117;DHT22;32591;48.102;11.772;2022-07-29T00:47:47;20.10;78.80
46117;DHT22;32591;48.102;11.772;2022-07-29T00:50:15;20.10;78.40
46117;DHT22;32591;48.102;11.772;2022-07-29T00:52:42;20.20;78.40
46117;DHT22;32591;48.102;11.772;2022-07-29T00:55:11;20.10;78.50
46117;DHT22;32591;48.102;11.772;2022-07-29T00:57:40;20.00;78.90
46117;DHT22;32591;48.102;11.772;2022-07-29T01:00:10;20.20;79.40
46117;DHT22;32591;48.102;11.772;2022-07-29T01:02:39;20.20;78.80
46117;DHT22;32591;48.102;11.772;2022-07-29T01:05:07;20.30;78.80
46117;DHT22;32591;48.102;11.772;2022-07-29T01:07:36;20.30;79.10
46117;DHT22;32591;48.102;11.772;2022-07-29T01:10:05;20.30;79.30
46117;DHT22;32591;48.102;11.772;2022-07-29T01:12:34;20.30;78.80
46117;DHT22;32591;48.102;11.772;2022-07-29T01:15:05;20.30;79.00
46117;DHT22;32591;48.102;11.772;2022-07-29T01:17:36;20.30;79.50
46117;DHT22;32591;48.102;11.772;2022-07-29T01:20:12;20.20;80.00
46117;DHT22;32591;48.102;11.772;2022-07-29T01:23:06;20.20;80.20
46117;DHT22;32591;48.102;11.772;2022-07-29T01:25:48;20.30;80.60
46117;DHT22;32591;48.102;11.772;2022-07-29T01:28:54;20.40;80.50
46117;DHT22;32591;48.102;11.772;2022-07-29T01:31:33;20.30;80.10
46117;DHT22;32591;48.102;11.772;2022-07-29T01:34:08;20.40;80.20
46117;DHT22;32591;48.102;11.772;2022-07-29T01:36:40;20.40;80.30
46117;DHT22;32591;48.102;11.772;2022-07-29T01:39:14;20.50;80.40
46117;DHT22;32591;48.102;11.772;2022-07-29T01:41:49;20.50;81.10
46117;DHT22;32591;48.102;11.772;2022-07-29T01:44:26;20.50;80.70
46117;DHT22;32591;48.102;11.772;2022-07-29T01:47:02;20.50;80.30
46117;DHT22;32591;48.102;11.772;2022-07-29T01:49:40;20.50;80.60
46117;DHT22;32591;48.102;11.772;2022-07-29T01:52:15;20.50;80.50
46117;DHT22;32591;48.102;11.772;2022-07-29T01:54:52;20.30;81.80
46117;DHT22;32591;48.102;11.772;2022-07-29T01:57:24;20.30;81.70
46117;DHT22;32591;48.102;11.772;2022-07-29T01:59:56;20.20;82.00
46117;DHT22;32591;48.102;11.772;2022-07-29T02:02:24;20.30;82.00
46117;DHT22;32591;48.102;11.772;2022-07-29T02:04:53;20.30;82.30
46117;DHT22;32591;48.102;11.772;2022-07-29T02:07:22;20.40;82.20
46117;DHT22;32591;48.102;11.772;2022-07-29T02:09:50;20.40;82.10
46117;DHT22;32591;48.102;11.772;2022-07-29T02:12:19;20.40;81.80
46117;DHT22;32591;48.102;11.772;2022-07-29T02:14:50;20.30;82.20
46117;DHT22;32591;48.102;11.772;2022-07-29T02:17:22;20.30;82.20
46117;DHT22;32591;48.102;11.772;2022-07-29T02:19:52;20.30;82.20
46117;DHT22;32591;48.102;11.772;2022-07-29T02:22:24;20.30;82.90
46117;DHT22;32591;48.102;11.772;2022-07-29T02:24:53;20.40;83.20
46117;DHT22;32591;48.102;11.772;2022-07-29T02:27:20;20.40;83.20
46117;DHT22;32591;48.102;11.772;2022-07-29T02:29:50;20.30;83.50
46117;DHT22;32591;48.102;11.772;2022-07-29T02:32:20;20.40;83.40
46117;DHT22;32591;48.102;11.772;2022-07-29T02:34:49;20.40;83.40
46117;DHT22;32591;48.102;11.772;2022-07-29T02:37:18;20.30;83.30
46117;DHT22;32591;48.102;11.772;2022-07-29T02:39:47;20.30;83.30
46117;DHT22;32591;48.102;11.772;2022-07-29T02:42:16;20.30;83.30
46117;DHT22;32591;48.102;11.772;2022-07-29T02:44:44;20.30;83.80
46117;DHT22;32591;48.102;11.772;2022-07-29T02:47:18;20.30;84.20
46117;DHT22;32591;48.102;11.772;2022-07-29T02:49:53;20.30;84.00
46117;DHT22;32591;48.102;11.772;2022-07-29T02:52:26;20.30;84.10
46117;DHT22;32591;48.102;11.772;2022-07-29T02:54:56;20.20;84.30
46117;DHT22;32591;48.102;11.772;2022-07-29T02:57:31;20.20;84.90
46117;DHT22;32591;48.102;11.772;2022-07-29T03:00:03;20.20;84.80
46117;DHT22;32591;48.102;11.772;2022-07-29T03:02:34;20.10;85.10
46117;DHT22;32591;48.102;11.772;2022-07-29T03:05:06;20.10;85.00
46117;DHT22;32591;48.102;11.772;2022-07-29T03:07:37;20.10;84.80
46117;DHT22;32591;48.102;11.772;2022-07-29T03:10:06;20.10;85.20
46117;DHT22;32591;48.102;11.772;2022-07-29T03:12:35;20.10;85.00
46117;DHT22;32591;48.102;11.772;2022-07-29T03:15:02;20.10;85.20
46117;DHT22;32591;48.102;11.772;2022-07-29T03:17:30;20.00;85.40
46117;DHT22;32591;48.102;11.772;2022-07-29T03:19:58;20.00;85.70
46117;DHT22;32591;48.102;11.772;2022-07-29T03:22:27;20.00;85.60
46117;DHT22;32591;48.102;11.772;2022-07-29T03:24:54;19.90;86.00
46117;DHT22;32591;48.102;11.772;2022-07-29T03:27:21;19.90;86.30
46117;DHT22;32591;48.102;11.772;2022-07-29T03:29:48;19.80;86.50
46117;DHT22;32591;48.102;11.772;2022-07-29T03:32:15;19.80;86.80
46117;DHT22;32591;48.102;11.772;2022-07-29T03:34:42;19.70;86.80
46117;DHT22;32591;48.102;11.772;2022-07-29T03:37:09;19.70;86.50
46117;DHT22;32591;48.102;11.772;2022-07-29T03:39:40;19.50;88.10
46117;DHT22;32591;48.102;11.772;2022-07-29T03:42:11;19.50;88.60
46117;DHT22;32591;48.102;11.772;2022-07-29T03:44:40;19.40;88.40
46117;DHT22;32591;48.102;11.772;2022-07-29T03:47:09;19.40;88.80
46117;DHT22;32591;48.102;11.772;2022-07-29T03:49:37;19.40;88.90
46117;DHT22;32591;48.102;11.772;2022-07-29T03:52:05;19.30;89.40
46117;DHT22;32591;48.102;11.772;2022-07-29T03:54:33;19.20;90.10
46117;DHT22;32591;48.102;11.772;2022-07-29T03:57:02;19.20;90.30
46117;DHT22;32591;48.102;11.772;2022-07-29T03:59:32;19.20;90.20
46117;DHT22;32591;48.102;11.772;2022-07-29T04:02:01;19.10;90.30
46117;DHT22;32591;48.102;11.772;2022-07-29T04:04:30;19.10;90.50
46117;DHT22;32591;48.102;11.772;2022-07-29T04:06:59;19.10;90.60
46117;DHT22;32591;48.102;11.772;2022-07-29T04:09:26;19.00;90.70
46117;DHT22;32591;48.102;11.772;2022-07-29T04:11:53;19.00;90.90
46117;DHT22;32591;48.102;11.772;2022-07-29T04:14:21;19.00;91.00
46117;DHT22;32591;48.102;11.772;2022-07-29T04:16:48;18.90;91.20
46117;DHT22;32591;48.102;11.772;2022-07-29T04:19:15;18.90;91.30
46117;DHT22;32591;48.102;11.772;2022-07-29T04:21:42;18.90;91.40
46117;DHT22;32591;48.102;11.772;2022-07-29T04:24:10;18.90;91.40
46117;DHT22;32591;48.102;11.772;2022-07-29T04:26:37;19.00;91.40
46117;DHT22;32591;48.102;11.772;2022-07-29T04:29:04;18.90;91.20
46117;DHT22;32591;48.102;11.772;2022-07-29T04:31:32;18.80;91.70
46117;DHT22;32591;48.102;11.772;2022-07-29T04:33:59;18.70;92.00
46117;DHT22;32591;48.102;11.772;2022-07-29T04:36:26;18.60;92.20
46117;DHT22;32591;48.102;11.772;2022-07-29T04:38:53;18.60;92.60
46117;DHT22;32591;48.102;11.772;2022-07-29T04:41:20;18.70;92.80
46117;DHT22;32591;48.102;11.772;2022-07-29T04:43:47;18.80;92.60
46117;DHT22;32591;48.102;11.772;2022-07-29T04:46:14;18.90;92.60
46117;DHT22;32591;48.102;11.772;2022-07-29T04:48:45;18.90;92.00
46117;DHT22;32591;48.102;11.772;2022-07-29T04:51:12;19.00;92.40
46117;DHT22;32591;48.102;11.772;2022-07-29T04:53:39;19.10;92.50
46117;DHT22;32591;48.102;11.772;2022-07-29T04:56:06;19.20;92.40
46117;DHT22;32591;48.102;11.772;2022-07-29T04:58:34;19.30;92.40
46117;DHT22;32591;48.102;11.772;2022-07-29T05:01:02;19.40;91.90
46117;DHT22;32591;48.102;11.772;2022-07-29T05:03:29;19.40;91.20
46117;DHT22;32591;48.102;11.772;2022-07-29T05:05:57;19.40;91.40
46117;DHT22;32591;48.102;11.772;2022-07-29T05:08:24;19.50;91.70
46117;DHT22;32591;48.102;11.772;2022-07-29T05:10:51;19.60;91.80
46117;DHT22;32591;48.102;11.772;2022-07-29T05:13:18;19.80;90.50
46117;DHT22;32591;48.102;11.772;2022-07-29T05:15:45;19.90;90.60
46117;DHT22;32591;48.102;11.772;2022-07-29T05:18:12;20.00;90.20
46117;DHT22;32591;48.102;11.772;2022-07-29T05:20:39;20.10;89.80
46117;DHT22;32591;48.102;11.772;2022-07-29T05:23:07;20.30;89.70
46117;DHT22;32591;48.102;11.772;2022-07-29T05:25:34;20.30;89.30
46117;DHT22;32591;48.102;11.772;2022-07-29T05:28:01;20.40;89.00
46117;DHT22;32591;48.102;11.772;2022-07-29T05:30:28;20.50;87.60
46117;DHT22;32591;48.102;11.772;2022-07-29T05:32:56;20.60;85.90
46117;DHT22;32591;48.102;11.772;2022-07-29T05:35:23;20.60;85.40
46117;DHT22;32591;48.102;11.772;2022-07-29T05:37:50;20.60;86.90
46117;DHT22;32591;48.102;11.772;2022-07-29T05:40:18;20.60;86.60
46117;DHT22;32591;48.102;11.772;2022-07-29T05:42:45;20.60;86.20
46117;DHT22;32591;48.102;11.772;2022-07-29T05:45:12;20.60;85.80
46117;DHT22;32591;48.102;11.772;2022-07-29T05:47:40;20.70;85.90
46117;DHT22;32591;48.102;11.772;2022-07-29T05:50:07;20.60;86.60
46117;DHT22;32591;48.102;11.772;2022-07-29T05:52:35;20.60;86.60
46117;DHT22;32591;48.102;11.772;2022-07-29T05:55:02;20.50;85.40
46117;DHT22;32591;48.102;11.772;2022-07-29T05:57:32;20.50;86.50
46117;DHT22;32591;48.102;11.772;2022-07-29T05:59:59;20.60;86.40
46117;DHT22;32591;48.102;11.772;2022-07-29T06:02:26;20.70;84.80
46117;DHT22;32591;48.102;11.772;2022-07-29T06:04:53;20.80;85.70
46117;DHT22;32591;48.102;11.772;2022-07-29T06:07:20;21.00;84.80
46117;DHT22;32591;48.102;11.772;2022-07-29T06:09:47;21.00;84.90
46117;DHT22;32591;48.102;11.772;2022-07-29T06:12:18;21.10;83.80
46117;DHT22;32591;48.102;11.772;2022-07-29T06:14:47;21.20;83.30
46117;DHT22;32591;48.102;11.772;2022-07-29T06:17:15;21.10;83.10
46117;DHT22;32591;48.102;11.772;2022-07-29T06:19:42;21.10;82.10
46117;DHT22;32591;48.102;11.772;2022-07-29T06:22:09;21.00;83.00
46117;DHT22;32591;48.102;11.772;2022-07-29T06:24:36;21.10;82.30
46117;DHT22;32591;48.102;11.772;2022-07-29T06:27:07;21.10;83.30
46117;DHT22;32591;48.102;11.772;2022-07-29T06:29:35;21.30;82.60
46117;DHT22;32591;48.102;11.772;2022-07-29T06:32:04;21.30;82.00
46117;DHT22;32591;48.102;11.772;2022-07-29T06:34:31;21.40;82.00
46117;DHT22;32591;48.102;11.772;2022-07-29T06:36:58;21.60;81.70
46117;DHT22;32591;48.102;11.772;2022-07-29T06:39:25;21.50;80.70
46117;DHT22;32591;48.102;11.772;2022-07-29T06:41:53;21.60;80.40
46117;DHT22;32591;48.102;11.772;2022-07-29T06:44:20;21.50;81.30
46117;DHT22;32591;48.102;11.772;2022-07-29T06:46:47;21.50;80.80
46117;DHT22;32591;48.102;11.772;2022-07-29T06:49:16;21.50;80.60
46117;DHT22;32591;48.102;11.772;2022-07-29T06:51:43;21.50;78.70
46117;DHT22;32591;48.102;11.772;2022-07-29T06:54:10;21.60;79.50
46117;DHT22;32591;48.102;11.772;2022-07-29T06:56:37;21.70;79.50
46117;DHT22;32591;48.102;11.772;2022-07-29T06:59:08;21.70;77.50
46117;DHT22;32591;48.102;11.772;2022-07-29T07:01:36;21.80;77.40
46117;DHT22;32591;48.102;11.772;2022-07-29T07:04:03;21.90;77.80
46117;DHT22;32591;48.102;11.772;2022-07-29T07:06:32;21.90;77.50
46117;DHT22;32591;48.102;11.772;2022-07-29T07:08:59;22.00;77.10
46117;DHT22;32591;48.102;11.772;2022-07-29T07:11:26;22.00;77.10
46117;DHT22;32591;48.102;11.772;2022-07-29T07:13:54;22.10;77.10
46117;DHT22;32591;48.102;11.772;2022-07-29T07:16:21;22.20;76.60
46117;DHT22;32591;48.102;11.772;2022-07-29T07:18:47;22.20;77.10
46117;DHT22;32591;48.102;11.772;2022-07-29T07:21:15;22.30;76.80
46117;DHT22;32591;48.102;11.772;2022-07-29T07:23:43;22.30;77.00
46117;DHT22;32591;48.102;11.772;2022-07-29T07:26:10;22.50;75.90
46117;DHT22;32591;48.102;11.772;2022-07-29T07:28:37;22.40;76.70
46117;DHT22;32591;48.102;11.772;2022-07-29T07:31:04;22.40;76.70
46117;DHT22;32591;48.102;11.772;2022-07-29T07:33:31;22.40;76.70
46117;DHT22;32591;48.102;11.772;2022-07-29T07:35:58;22.50;75.60
46117;DHT22;32591;48.102;11.772;2022-07-29T07:38:25;22.70;75.50
46117;DHT22;32591;48.102;11.772;2022-07-29T07:40:53;22.70;74.70
46117;DHT22;32591;48.102;11.772;2022-07-29T07:43:20;22.90;75.60
46117;DHT22;32591;48.102;11.772;2022-07-29T07:45:48;22.90;74.70
46117;DHT22;32591;48.102;11.772;2022-07-29T07:48:15;23.00;73.90
46117;DHT22;32591;48.102;11.772;2022-07-29T07:50:42;23.20;73.50
46117;DHT22;32591;48.102;11.772;2022-07-29T07:53:09;23.40;72.50
46117;DHT22;32591;48.102;11.772;2022-07-29T07:55:39;23.50;72.60
46117;DHT22;32591;48.102;11.772;2022-07-29T07:58:08;23.60;71.20
46117;DHT22;32591;48.102;11.772;2022-07-29T08:00:36;23.80;71.30
46117;DHT22;32591;48.102;11.772;2022-07-29T08:03:03;23.80;69.80
46117;DHT22;32591;48.102;11.772;2022-07-29T08:05:30;24.00;69.00
46117;DHT22;32591;48.102;11.772;2022-07-29T08:07:57;24.00;68.90
46117;DHT22;32591;48.102;11.772;2022-07-29T08:10:24;24.10;69.70
46117;DHT22;32591;48.102;11.772;2022-07-29T08:13:11;24.10;69.50
46117;DHT22;32591;48.102;11.772;2022-07-29T08:15:39;24.10;67.30
46117;DHT22;32591;48.102;11.772;2022-07-29T08:18:07;24.10;67.90
46117;DHT22;32591;48.102;11.772;2022-07-29T08:20:34;24.20;66.30
46117;DHT22;32591;48.102;11.772;2022-07-29T08:23:01;24.40;65.80
46117;DHT22;32591;48.102;11.772;2022-07-29T08:25:29;24.60;66.60
46117;DHT22;32591;48.102;11.772;2022-07-29T08:27:56;24.70;65.40
46117;DHT22;32591;48.102;11.772;2022-07-29T08:30:25;24.70;64.80
46117;DHT22;32591;48.102;11.772;2022-07-29T08:32:51;24.70;64.60
46117;DHT22;32591;48.102;11.772;2022-07-29T08:35:19;24.80;64.90
46117;DHT22;32591;48.102;11.772;2022-07-29T08:37:47;24.80;65.50
46117;DHT22;32591;48.102;11.772;2022-07-29T08:40:14;24.90;65.20
46117;DHT22;32591;48.102;11.772;2022-07-29T08:42:41;25.00;63.80
46117;DHT22;32591;48.102;11.772;2022-07-29T08:45:09;24.90;64.20
46117;DHT22;32591;48.102;11.772;2022-07-29T08:47:38;24.80;64.30
46117;DHT22;32591;48.102;11.772;2022-07-29T08:50:06;24.80;64.40
46117;DHT22;32591;48.102;11.772;2022-07-29T08:52:36;24.80;64.00
46117;DHT22;32591;48.102;11.772;2022-07-29T08:55:06;24.80;64.60
46117;DHT22;32591;48.102;11.772;2022-07-29T08:57:34;25.00;63.80
46117;DHT22;32591;48.102;11.772;2022-07-29T09:00:05;25.00;63.30
46117;DHT22;32591;48.102;11.772;2022-07-29T09:02:36;25.10;63.50
46117;DHT22;32591;48.102;11.772;2022-07-29T09:05:08;25.30;63.20
46117;DHT22;32591;48.102;11.772;2022-07-29T09:07:36;25.60;62.20
46117;DHT22;32591;48.102;11.772;2022-07-29T09:10:05;25.70;64.10
46117;DHT22;32591;48.102;11.772;2022-07-29T09:12:33;25.80;62.50
46117;DHT22;32591;48.102;11.772;2022-07-29T09:15:00;25.80;62.50
46117;DHT22;32591;48.102;11.772;2022-07-29T09:17:41;25.70;62.20
46117;DHT22;32591;48.102;11.772;2022-07-29T09:20:11;25.70;62.70
46117;DHT22;32591;48.102;11.772;2022-07-29T09:22:39;25.60;62.30
46117;DHT22;32591;48.102;11.772;2022-07-29T09:25:06;25.60;62.90
46117;DHT22;32591;48.102;11.772;2022-07-29T09:27:34;25.60;63.60
46117;DHT22;32591;48.102;11.772;2022-07-29T09:30:03;25.60;62.20
46117;DHT22;32591;48.102;11.772;2022-07-29T09:32:32;25.70;62.60
46117;DHT22;32591;48.102;11.772;2022-07-29T09:35:18;25.80;62.00
46117;DHT22;32591;48.102;11.772;2022-07-29T09:37:47;26.00;62.30
46117;DHT22;32591;48.102;11.772;2022-07-29T09:40:16;26.10;61.80
46117;DHT22;32591;48.102;11.772;2022-07-29T09:42:46;26.00;61.60
46117;DHT22;32591;48.102;11.772;2022-07-29T09:45:26;26.10;62.60
46117;DHT22;32591;48.102;11.772;2022-07-29T09:47:54;26.20;61.80
46117;DHT22;32591;48.102;11.772;2022-07-29T09:50:36;26.20;60.90
46117;DHT22;32591;48.102;11.772;2022-07-29T09:53:04;26.40;61.50
46117;DHT22;32591;48.102;11.772;2022-07-29T09:55:31;26.50;61.30
46117;DHT22;32591;48.102;11.772;2022-07-29T09:58:16;26.50;61.30
46117;DHT22;32591;48.102;11.772;2022-07-29T10:00:45;26.60;60.90
46117;DHT22;32591;48.102;11.772;2022-07-29T10:03:13;26.60;61.00
46117;DHT22;32591;48.102;11.772;2022-07-29T10:05:43;26.50;61.40
46117;DHT22;32591;48.102;11.772;2022-07-29T10:08:11;26.70;61.30
46117;DHT22;32591;48.102;11.772;2022-07-29T10:10:41;27.00;61.40
46117;DHT22;32591;48.102;11.772;2022-07-29T10:13:10;26.90;61.30
46117;DHT22;32591;48.102;11.772;2022-07-29T10:15:39;26.50;61.00
46117;DHT22;32591;48.102;11.772;2022-07-29T10:18:09;26.30;61.90
46117;DHT22;32591;48.102;11.772;2022-07-29T10:20:38;26.10;61.30
46117;DHT22;32591;48.102;11.772;2022-07-29T10:23:07;25.90;62.30
46117;DHT22;32591;48.102;11.772;2022-07-29T10:25:35;25.90;62.30
46117;DHT22;32591;48.102;11.772;2022-07-29T10:28:02;25.90;62.90
46117;DHT22;32591;48.102;11.772;2022-07-29T10:30:31;25.90;62.90
46117;DHT22;32591;48.102;11.772;2022-07-29T10:33:17;26.00;63.00
46117;DHT22;32591;48.102;11.772;2022-07-29T10:36:07;26.00;62.60
46117;DHT22;32591;48.102;11.772;2022-07-29T10:38:47;26.00;62.90
46117;DHT22;32591;48.102;11.772;2022-07-29T10:41:37;25.90;63.50
46117;DHT22;32591;48.102;11.772;2022-07-29T10:44:16;25.90;63.10
46117;DHT22;32591;48.102;11.772;2022-07-29T10:46:45;25.90;63.40
46117;DHT22;32591;48.102;11.772;2022-07-29T10:49:13;25.90;63.80
46117;DHT22;32591;48.102;11.772;2022-07-29T10:52:14;25.90;64.10
46117;DHT22;32591;48.102;11.772;2022-07-29T10:54:48;25.80;65.40
46117;DHT22;32591;48.102;11.772;2022-07-29T10:57:22;25.80;64.60
46117;DHT22;32591;48.102;11.772;2022-07-29T11:00:30;25.70;65.00
46117;DHT22;32591;48.102;11.772;2022-07-29T11:02:58;25.60;64.90
46117;DHT22;32591;48.102;11.772;2022-07-29T11:05:26;25.40;65.70
46117;DHT22;32591;48.102;11.772;2022-07-29T11:08:21;25.40;65.90
46117;DHT22;32591;48.102;11.772;2022-07-29T11:14:04;25.20;67.60
46117;DHT22;32591;48.102;11.772;2022-07-29T11:17:02;25.20;66.90
46117;DHT22;32591;48.102;11.772;2022-07-29T11:19:30;25.30;67.40
46117;DHT22;32591;48.102;11.772;2022-07-29T11:21:58;25.40;66.60
46117;DHT22;32591;48.102;11.772;2022-07-29T11:24:26;25.50;66.30
46117;DHT22;32591;48.102;11.772;2022-07-29T11:27:15;25.80;65.60
46117;DHT22;32591;48.102;11.772;2022-07-29T11:29:50;26.30;63.90
46117;DHT22;32591;48.102;11.772;2022-07-29T11:32:19;26.60;63.40
46117;DHT22;32591;48.102;11.772;2022-07-29T11:34:48;26.80;63.80
46117;DHT22;32591;48.102;11.772;2022-07-29T11:37:21;27.00;62.50
46117;DHT22;32591;48.102;11.772;2022-07-29T11:40:08;27.20;59.40
46117;DHT22;32591;48.102;11.772;2022-07-29T11:42:50;27.30;59.20
46117;DHT22;32591;48.102;11.772;2022-07-29T11:45:25;27.50;58.90
46117;DHT22;32591;48.102;11.772;2022-07-29T11:47:59;27.70;56.90
46117;DHT22;32591;48.102;11.772;2022-07-29T11:50:29;27.80;57.20
46117;DHT22;32591;48.102;11.772;2022-07-29T11:52:57;27.60;56.30
46117;DHT22;32591;48.102;11.772;2022-07-29T11:55:25;27.50;56.70
46117;DHT22;32591;48.102;11.772;2022-07-29T11:57:56;27.40;56.40
46117;DHT22;32591;48.102;11.772;2022-07-29T12:00:29;27.20;56.00
46117;DHT22;32591;48.102;11.772;2022-07-29T12:02:59;27.10;56.90
46117;DHT22;32591;48.102;11.772;2022-07-29T12:05:40;27.00;56.50
46117;DHT22;32591;48.102;11.772;2022-07-29T12:08:13;27.00;57.70
46117;DHT22;32591;48.102;11.772;2022-07-29T12:10:42;27.00;57.90
46117;DHT22;32591;48.102;11.772;2022-07-29T12:13:11;27.10;56.80
46117;DHT22;32591;48.102;11.772;2022-07-29T12:15:39;27.10;57.70
46117;DHT22;32591;48.102;11.772;2022-07-29T12:18:10;27.10;58.20
46117;DHT22;32591;48.102;11.772;2022-07-29T12:20:38;27.20;57.30
46117;DHT22;32591;48.102;11.772;2022-07-29T12:23:06;27.20;55.10
46117;DHT22;32591;48.102;11.772;2022-07-29T12:25:35;27.20;55.20
46117;DHT22;32591;48.102;11.772;2022-07-29T12:28:04;27.30;55.50
46117;DHT22;32591;48.102;11.772;2022-07-29T12:30:38;27.30;55.50
46117;DHT22;32591;48.102;11.772;2022-07-29T12:33:11;27.30;55.00
46117;DHT22;32591;48.102;11.772;2022-07-29T12:35:40;27.10;55.80
46117;DHT22;32591;48.102;11.772;2022-07-29T12:38:10;26.90;56.50
46117;DHT22;32591;48.102;11.772;2022-07-29T12:40:41;26.90;56.50
46117;DHT22;32591;48.102;11.772;2022-07-29T12:43:11;27.00;56.40
46117;DHT22;32591;48.102;11.772;2022-07-29T12:45:43;27.10;55.60
46117;DHT22;32591;48.102;11.772;2022-07-29T12:48:11;27.00;56.60
46117;DHT22;32591;48.102;11.772;2022-07-29T12:50:53;27.00;56.30
46117;DHT22;32591;48.102;11.772;2022-07-29T12:53:21;27.20;56.30
46117;DHT22;32591;48.102;11.772;2022-07-29T12:55:50;27.40;56.50
46117;DHT22;32591;48.102;11.772;2022-07-29T12:58:33;27.60;55.60
46117;DHT22;32591;48.102;11.772;2022-07-29T13:01:09;27.70;54.70
46117;DHT22;32591;48.102;11.772;2022-07-29T13:03:59;27.60;54.80
46117;DHT22;32591;48.102;11.772;2022-07-29T13:06:37;27.70;55.70
46117;DHT22;32591;48.102;11.772;2022-07-29T13:09:09;28.10;54.00
46117;DHT22;32591;48.102;11.772;2022-07-29T13:11:38;28.20;53.00
46117;DHT22;32591;48.102;11.772;2022-07-29T13:14:08;28.30;53.40
46117;DHT22;32591;48.102;11.772;2022-07-29T13:17:01;28.30;54.10
46117;DHT22;32591;48.102;11.772;2022-07-29T13:19:36;28.00;54.20
46117;DHT22;32591;48.102;11.772;2022-07-29T13:22:05;27.90;53.60
46117;DHT22;32591;48.102;11.772;2022-07-29T13:24:33;27.80;54.50
46117;DHT22;32591;48.102;11.772;2022-07-29T13:27:00;27.60;55.40
46117;DHT22;32591;48.102;11.772;2022-07-29T13:29:27;27.50;55.70
46117;DHT22;32591;48.102;11.772;2022-07-29T13:31:55;27.50;55.80
46117;DHT22;32591;48.102;11.772;2022-07-29T13:34:22;27.40;54.10
46117;DHT22;32591;48.102;11.772;2022-07-29T13:36:49;27.30;53.40
46117;DHT22;32591;48.102;11.772;2022-07-29T13:39:16;27.20;53.60
46117;DHT22;32591;48.102;11.772;2022-07-29T13:41:44;27.10;54.00
46117;DHT22;32591;48.102;11.772;2022-07-29T13:44:10;26.90;55.00
46117;DHT22;32591;48.102;11.772;2022-07-29T13:46:37;26.80;55.00
46117;DHT22;32591;48.102;11.772;2022-07-29T13:49:06;26.80;55.70
46117;DHT22;32591;48.102;11.772;2022-07-29T13:51:33;26.70;56.20
46117;DHT22;32591;48.102;11.772;2022-07-29T13:54:00;26.70;56.20
46117;DHT22;32591;48.102;11.772;2022-07-29T13:56:27;26.60;57.30
46117;DHT22;32591;48.102;11.772;2022-07-29T13:58:54;26.50;58.70
46117;DHT22;32591;48.102;11.772;2022-07-29T14:01:21;26.50;58.80
46117;DHT22;32591;48.102;11.772;2022-07-29T14:03:48;26.50;60.40
46117;DHT22;32591;48.102;11.772;2022-07-29T14:06:16;26.40;60.60
46117;DHT22;32591;48.102;11.772;2022-07-29T14:08:43;26.30;62.00
46117;DHT22;32591;48.102;11.772;2022-07-29T14:11:10;26.40;60.40
46117;DHT22;32591;48.102;11.772;2022-07-29T14:13:37;26.40;60.30
46117;DHT22;32591;48.102;11.772;2022-07-29T14:16:04;26.50;59.70
46117;DHT22;32591;48.102;11.772;2022-07-29T14:18:32;26.40;60.30
46117;DHT22;32591;48.102;11.772;2022-07-29T14:20:59;26.40;60.50
46117;DHT22;32591;48.102;11.772;2022-07-29T14:23:27;26.40;60.80
46117;DHT22;32591;48.102;11.772;2022-07-29T14:25:55;26.30;59.70
46117;DHT22;32591;48.102;11.772;2022-07-29T14:28:22;26.30;61.10
46117;DHT22;32591;48.102;11.772;2022-07-29T14:30:49;26.40;60.70
46117;DHT22;32591;48.102;11.772;2022-07-29T14:33:15;26.50;61.50
46117;DHT22;32591;48.102;11.772;2022-07-29T14:35:43;26.50;61.50
46117;DHT22;32591;48.102;11.772;2022-07-29T14:38:11;26.60;60.70
46117;DHT22;32591;48.102;11.772;2022-07-29T14:40:39;26.60;60.10
46117;DHT22;32591;48.102;11.772;2022-07-29T14:43:06;26.60;61.10
46117;DHT22;32591;48.102;11.772;2022-07-29T14:45:33;26.60;59.50
46117;DHT22;32591;48.102;11.772;2022-07-29T14:48:00;26.50;60.30
46117;DHT22;32591;48.102;11.772;2022-07-29T14:50:27;26.60;60.60
46117;DHT22;32591;48.102;11.772;2022-07-29T14:52:54;26.70;59.00
46117;DHT22;32591;48.102;11.772;2022-07-29T14:55:21;26.90;59.90
46117;DHT22;32591;48.102;11.772;2022-07-29T14:57:49;27.20;59.30
46117;DHT22;32591;48.102;11.772;2022-07-29T15:00:17;27.30;58.30
46117;DHT22;32591;48.102;11.772;2022-07-29T15:02:44;27.30;58.20
46117;DHT22;32591;48.102;11.772;2022-07-29T15:05:11;27.40;58.00
46117;DHT22;32591;48.102;11.772;2022-07-29T15:07:38;27.40;58.90
46117;DHT22;32591;48.102;11.772;2022-07-29T15:10:05;27.30;58.30
46117;DHT22;32591;48.102;11.772;2022-07-29T15:12:33;27.10;57.90
46117;DHT22;32591;48.102;11.772;2022-07-29T15:15:01;26.90;58.70
46117;DHT22;32591;48.102;11.772;2022-07-29T15:17:28;26.90;59.00
46117;DHT22;32591;48.102;11.772;2022-07-29T15:19:55;26.90;58.50
46117;DHT22;32591;48.102;11.772;2022-07-29T15:22:22;26.80;57.60
46117;DHT22;32591;48.102;11.772;2022-07-29T15:24:49;26.70;58.00
46117;DHT22;32591;48.102;11.772;2022-07-29T15:27:16;26.70;58.60
46117;DHT22;32591;48.102;11.772;2022-07-29T15:29:43;26.90;58.90
46117;DHT22;32591;48.102;11.772;2022-07-29T15:32:12;27.00;58.80
46117;DHT22;32591;48.102;11.772;2022-07-29T15:34:39;27.00;54.60